createdAt,value
2017-12-12T10:00:54.311Z,64.70
2017-12-12T10:03:23.795Z,50.70
2017-12-12T10:05:52.469Z,50.30
2017-12-12T10:08:21.151Z,49.60
2017-12-12T10:10:49.821Z,49.20
2017-12-12T10:13:24.623Z,49.10
2017-12-12T10:15:53.297Z,48.60
2017-12-12T10:18:28.179Z,47.40
2017-12-12T10:20:57.719Z,47.20
2017-12-12T10:23:26.412Z,46.50
2017-12-12T10:25:55.079Z,46.40
2017-12-12T10:28:23.754Z,46.30
2017-12-12T10:30:52.454Z,45.60
2017-12-12T10:33:27.255Z,44.90
2017-12-12T10:35:56.700Z,44.30
2017-12-12T10:38:31.591Z,44.30
2017-12-12T10:41:01.147Z,44.80
2017-12-12T10:43:29.831Z,43.70
2017-12-12T10:46:04.689Z,43.40
2017-12-12T10:48:33.335Z,43.40
2017-12-12T10:51:02.020Z,43.50
2017-12-12T10:53:30.707Z,43.30
2017-12-12T10:56:02.432Z,43.00
2017-12-12T10:58:31.116Z,42.70
2017-12-12T11:01:05.908Z,42.20
2017-12-12T11:03:34.596Z,42.50
2017-12-12T11:06:04.087Z,42.60
2017-12-12T11:08:32.779Z,42.60
2017-12-12T11:11:07.711Z,42.50
2017-12-12T11:13:36.482Z,43.40
2017-12-12T11:16:05.159Z,43.40
2017-12-12T11:18:33.851Z,43.30
2017-12-12T11:21:03.568Z,43.60
2017-12-12T11:23:32.237Z,43.90
2017-12-12T11:26:00.911Z,44.70
2017-12-12T11:28:36.679Z,45.00
2017-12-12T11:31:05.360Z,44.90
2017-12-12T11:33:41.016Z,45.40
2017-12-12T11:36:15.972Z,45.40
2017-12-12T11:38:44.650Z,45.40
2017-12-12T11:41:13.319Z,45.40
2017-12-12T11:43:43.636Z,44.90
2017-12-12T11:46:12.307Z,44.90
2017-12-12T11:48:42.003Z,44.70
2017-12-12T11:51:10.678Z,44.70
2017-12-12T11:53:45.423Z,44.70
2017-12-12T11:56:14.139Z,45.10
2017-12-12T11:58:42.812Z,45.00
2017-12-12T12:01:17.715Z,44.90
2017-12-12T12:03:46.409Z,45.70
2017-12-12T12:06:21.349Z,46.10
2017-12-12T12:08:50.027Z,46.50
2017-12-12T12:11:24.939Z,46.50
2017-12-12T12:13:54.381Z,46.80
2017-12-12T12:16:23.383Z,46.70
2017-12-12T12:18:52.404Z,46.10
2017-12-12T12:21:27.417Z,46.50
2017-12-12T12:23:57.112Z,46.30
2017-12-12T12:26:26.068Z,46.20
2017-12-12T12:28:55.010Z,46.40
2017-12-12T12:31:24.671Z,46.10
2017-12-12T12:34:00.121Z,46.00
2017-12-12T12:36:35.465Z,45.80
2017-12-12T12:39:10.789Z,45.80
2017-12-12T12:41:39.804Z,45.80
2017-12-12T12:44:08.933Z,45.40
2017-12-12T12:46:37.860Z,45.20
2017-12-12T12:49:13.117Z,45.20
2017-12-12T12:51:42.265Z,45.00
2017-12-12T12:54:12.132Z,44.00
2017-12-12T12:56:41.205Z,44.70
2017-12-12T12:59:09.914Z,44.70
2017-12-12T13:01:38.734Z,45.10
2017-12-12T13:04:13.682Z,45.50
2017-12-12T13:06:42.476Z,44.70
2017-12-12T13:09:11.137Z,44.40
2017-12-12T13:11:39.814Z,44.40
2017-12-12T13:14:13.591Z,44.50
2017-12-12T13:16:42.263Z,43.60
2017-12-12T13:19:11.715Z,43.50
2017-12-12T13:21:40.396Z,43.50
2017-12-12T13:24:09.086Z,43.30
2017-12-12T13:26:37.767Z,43.30
2017-12-12T13:29:06.458Z,42.30
2017-12-12T13:31:41.243Z,42.70
2017-12-12T13:34:09.918Z,42.90
2017-12-12T13:36:39.361Z,43.10
2017-12-12T13:39:08.031Z,43.10
2017-12-12T13:41:42.943Z,43.20
2017-12-12T13:44:12.387Z,42.70
2017-12-12T13:46:41.078Z,42.70
2017-12-12T13:49:10.005Z,43.20
2017-12-12T13:51:39.811Z,43.10
2017-12-12T13:54:15.466Z,43.10
2017-12-12T13:56:50.692Z,42.60
2017-12-12T13:59:19.716Z,43.00
2017-12-12T14:01:50.441Z,42.90
2017-12-12T14:04:26.519Z,42.90
2017-12-12T14:07:01.661Z,42.70
2017-12-12T14:09:37.458Z,42.70
2017-12-12T14:12:06.696Z,42.70
2017-12-12T14:14:36.187Z,43.00
2017-12-12T14:17:11.949Z,43.20
2017-12-12T14:19:41.145Z,43.20
2017-12-12T14:22:10.402Z,43.60
2017-12-12T14:27:18.783Z,43.70
2017-12-12T14:29:47.721Z,43.70
2017-12-12T14:32:16.751Z,43.60
2017-12-12T14:34:51.834Z,43.70
2017-12-12T14:37:20.881Z,44.20
2017-12-12T14:39:50.364Z,43.90
2017-12-12T14:42:20.042Z,44.00
2017-12-12T14:44:49.530Z,44.10
2017-12-12T14:47:18.207Z,44.00
2017-12-12T14:49:46.967Z,44.60
2017-12-12T14:52:15.632Z,44.80
2017-12-12T14:54:44.334Z,44.70
2017-12-12T14:57:19.131Z,45.00
2017-12-12T14:59:47.812Z,45.10
2017-12-12T15:02:24.495Z,45.10
2017-12-12T15:04:53.179Z,45.50
2017-12-12T15:07:28.071Z,45.60
2017-12-12T15:10:03.035Z,45.60
2017-12-12T15:12:32.729Z,45.90
2017-12-12T15:15:01.387Z,46.10
2017-12-12T15:17:30.882Z,46.80
2017-12-12T15:20:00.330Z,46.90
2017-12-12T15:22:29.399Z,46.90
2017-12-12T15:24:58.238Z,46.80
2017-12-12T15:27:27.294Z,46.90
2017-12-12T15:29:57.270Z,47.10
2017-12-12T15:32:26.207Z,47.60
2017-12-12T15:35:01.369Z,47.60
2017-12-12T15:37:30.267Z,47.60
2017-12-12T15:39:59.256Z,47.70
2017-12-12T15:42:34.524Z,48.10
2017-12-12T15:45:03.401Z,48.50
2017-12-12T15:47:32.344Z,48.60
2017-12-12T15:50:01.519Z,48.70
2017-12-12T15:52:30.533Z,48.90
2017-12-12T15:55:05.674Z,49.80
2017-12-12T15:57:40.732Z,49.50
2017-12-12T16:00:09.612Z,49.90
2017-12-12T16:02:38.521Z,50.30
2017-12-12T16:05:13.745Z,50.50
2017-12-12T16:07:44.463Z,51.00
2017-12-12T16:10:19.568Z,51.30
2017-12-12T16:12:48.660Z,51.40
2017-12-12T16:15:17.398Z,51.60
2017-12-12T16:17:47.003Z,51.70
2017-12-12T16:20:15.671Z,51.90
2017-12-12T16:22:50.882Z,51.90
2017-12-12T16:25:26.007Z,51.90
2017-12-12T16:27:56.003Z,52.20
2017-12-12T16:30:31.233Z,52.30
2017-12-12T16:33:00.578Z,52.50
2017-12-12T16:35:29.427Z,52.70
2017-12-12T16:37:58.424Z,52.90
2017-12-12T16:40:28.682Z,52.90
2017-12-12T16:42:58.659Z,52.90
2017-12-12T16:45:28.142Z,52.80
2017-12-12T16:47:57.780Z,52.70
2017-12-12T16:50:26.813Z,53.00
2017-12-12T16:53:02.564Z,53.20
2017-12-12T16:55:37.182Z,53.90
2017-12-12T16:58:12.672Z,53.40
2017-12-12T17:00:48.105Z,53.50
2017-12-12T17:03:17.410Z,53.50
2017-12-12T17:05:54.050Z,53.60
2017-12-12T17:08:23.728Z,54.50
2017-12-12T17:10:53.015Z,54.10
2017-12-12T17:13:28.717Z,54.20
2017-12-12T17:15:58.724Z,54.00
2017-12-12T17:18:28.752Z,54.00
2017-12-12T17:20:59.280Z,54.00
2017-12-12T17:23:39.429Z,54.00
2017-12-12T17:26:09.408Z,54.00
2017-12-12T17:31:38.799Z,53.90
2017-12-12T17:34:14.430Z,53.80
2017-12-12T17:36:43.472Z,53.50
2017-12-12T17:39:12.182Z,53.50
2017-12-12T17:41:42.269Z,53.40
2017-12-12T17:44:14.044Z,53.30
2017-12-12T17:46:45.131Z,53.30
2017-12-12T17:49:29.512Z,53.30
2017-12-12T17:52:05.849Z,53.30
2017-12-12T17:54:41.316Z,53.40
2017-12-12T17:57:29.826Z,54.00
2017-12-12T18:00:08.209Z,54.00
2017-12-12T18:02:47.980Z,54.50
2017-12-12T18:05:17.622Z,54.90
2017-12-12T18:07:46.295Z,55.20
2017-12-12T18:10:14.993Z,55.30
2017-12-12T18:13:06.672Z,55.30
2017-12-12T18:15:51.625Z,55.70
2017-12-12T18:24:45.240Z,56.20
2017-12-12T18:27:28.085Z,56.50
2017-12-12T18:30:02.785Z,56.70
2017-12-12T18:37:53.327Z,57.00
2017-12-12T18:40:45.513Z,57.50
2017-12-12T18:46:33.290Z,58.30
2017-12-12T18:49:02.731Z,58.10
2017-12-12T18:51:31.976Z,58.10
2017-12-12T18:54:00.764Z,58.20
2017-12-12T18:56:35.663Z,58.20
2017-12-12T18:59:04.352Z,58.00
2017-12-12T19:01:36.073Z,58.00
2017-12-12T19:04:10.966Z,57.80
2017-12-12T19:06:40.570Z,57.50
2017-12-12T19:09:15.522Z,57.80
2017-12-12T19:11:45.003Z,57.90
2017-12-12T19:14:13.674Z,57.80
2017-12-12T19:16:48.575Z,57.90
2017-12-12T19:19:17.285Z,57.80
2017-12-12T19:21:53.023Z,57.80
2017-12-12T19:24:27.973Z,57.90
2017-12-12T19:27:03.564Z,58.30
2017-12-12T19:29:41.223Z,58.30
2017-12-12T19:32:10.186Z,58.40
2017-12-12T19:34:48.279Z,58.30
2017-12-12T19:37:21.577Z,58.30
2017-12-12T19:39:51.124Z,58.10
2017-12-12T19:42:26.007Z,58.10
2017-12-12T19:45:05.077Z,58.10
2017-12-12T19:47:40.107Z,57.90
2017-12-12T20:00:13.078Z,57.70
2017-12-12T20:14:36.743Z,58.40
2017-12-12T20:42:16.524Z,58.10
2017-12-12T20:59:43.919Z,58.60
2017-12-12T21:02:36.659Z,58.70
2017-12-12T21:05:11.533Z,58.60
2017-12-12T21:13:23.402Z,58.10
2017-12-12T21:15:56.652Z,57.90
2017-12-12T21:24:23.691Z,57.60
2017-12-12T21:27:06.737Z,57.70
2017-12-12T21:29:49.869Z,57.60
2017-12-12T21:32:21.770Z,57.50
2017-12-12T21:34:50.877Z,57.20
2017-12-12T21:37:21.041Z,57.20
2017-12-12T21:39:56.456Z,57.40
2017-12-12T21:42:27.133Z,57.30
2017-12-12T21:45:07.120Z,57.40
2017-12-12T21:47:36.804Z,57.60
2017-12-12T21:50:12.007Z,57.70
2017-12-12T21:52:41.750Z,57.70
2017-12-12T21:55:18.765Z,57.80
2017-12-12T21:57:50.882Z,57.80
2017-12-12T22:00:21.283Z,57.80
2017-12-12T22:02:55.917Z,58.00
2017-12-12T22:05:26.323Z,58.20
2017-12-12T22:07:57.271Z,58.30
2017-12-12T22:10:27.767Z,58.20
2017-12-12T22:12:57.866Z,58.20
2017-12-12T22:15:27.516Z,58.10
2017-12-12T22:17:56.182Z,58.20
2017-12-12T22:20:32.287Z,58.30
2017-12-12T22:23:01.115Z,58.10
2017-12-12T22:25:31.738Z,58.10
2017-12-12T22:28:00.578Z,58.00
2017-12-12T22:30:30.052Z,58.00
2017-12-12T22:32:58.948Z,58.00
2017-12-12T22:35:28.241Z,58.00
2017-12-12T22:38:06.073Z,58.00
2017-12-12T22:40:35.284Z,58.20
2017-12-12T22:43:04.708Z,58.20
2017-12-12T22:45:34.358Z,58.20
2017-12-12T22:48:03.489Z,58.20
2017-12-12T22:50:32.616Z,58.30
2017-12-12T22:53:03.626Z,58.50
2017-12-12T22:55:38.619Z,58.50
2017-12-12T22:58:09.158Z,58.40
2017-12-12T23:00:39.431Z,58.40
2017-12-12T23:03:08.581Z,58.40
2017-12-12T23:05:44.220Z,58.20
2017-12-12T23:08:13.387Z,58.10
2017-12-12T23:10:43.311Z,57.90
2017-12-12T23:13:14.888Z,57.60
2017-12-12T23:15:50.978Z,57.60
2017-12-12T23:18:20.898Z,57.60
2017-12-12T23:20:57.021Z,57.40
2017-12-12T23:23:27.711Z,57.30
2017-12-12T23:26:04.812Z,57.20
2017-12-12T23:28:33.713Z,57.10
2017-12-12T23:31:03.719Z,57.00
2017-12-12T23:33:40.184Z,56.90
2017-12-12T23:36:09.420Z,57.00
2017-12-12T23:38:38.147Z,57.20
2017-12-12T23:41:08.216Z,57.40
2017-12-12T23:43:38.976Z,57.40
2017-12-12T23:46:07.720Z,57.30
2017-12-12T23:48:36.876Z,57.30
2017-12-12T23:51:06.032Z,57.50
2017-12-12T23:53:35.102Z,57.70
2017-12-12T23:56:04.154Z,57.70
2017-12-12T23:58:41.495Z,57.80
